Time;durP1;ratioP1;P1;durP2;ratioP2;P2;SDS_P1;SDS_P2;PMS_P1;PMS_P2;Temp;Humidity;BMP_temperature;BMP_pressure;BME280_temperature;BME280_humidity;BME280_pressure;Samples;Min_cycle;Max_cycle;Signal;HPM_P1;HPM_P2
2022/01/28 00:00:35;;;;;;;10.07;0.82;;;4.30;99.90;;;;;;5011419;28;20120;-77
2022/01/28 00:05:28;;;;;;;16.23;1.23;;;4.20;99.90;;;;;;5010754;28;20037;-76
2022/01/28 00:07:54;;;;;;;12.23;1.00;;;4.10;99.90;;;;;;5010350;28;20026;-77
2022/01/28 00:10:22;;;;;;;14.07;1.20;;;4.10;99.90;;;;;;5009569;28;20029;-76
2022/01/28 00:15:40;;;;;;;19.20;1.20;;;4.10;99.90;;;;;;5014522;28;20084;-76
2022/01/28 00:39:39;;;;;;;15.45;1.45;;;3.90;99.90;;;;;;5002206;28;20077;-77
2022/01/28 00:42:05;;;;;;;14.25;0.90;;;3.90;99.90;;;;;;5007693;28;20064;-77
2022/01/28 00:44:31;;;;;;;20.15;1.55;;;3.80;99.90;;;;;;5010834;28;20084;-76
2022/01/28 00:46:56;;;;;;;20.02;1.00;;;3.90;99.90;;;;;;5009720;28;20050;-77
2022/01/28 00:49:22;;;;;;;15.23;1.23;;;3.90;99.90;;;;;;5012609;28;20040;-77
2022/01/28 00:51:48;;;;;;;20.70;1.25;;;3.90;99.90;;;;;;5010274;28;20061;-77
2022/01/28 00:54:13;;;;;;;21.15;1.77;;;4.00;99.90;;;;;;5000154;28;20057;-77
2022/01/28 00:56:39;;;;;;;22.55;1.55;;;4.00;99.90;;;;;;5011945;28;20026;-77
2022/01/28 00:59:04;;;;;;;18.77;1.33;;;4.10;99.90;;;;;;5010670;28;20038;-76
2022/01/28 01:01:30;;;;;;;13.43;1.02;;;4.10;99.90;;;;;;5007451;28;20021;-77
2022/01/28 01:04:00;;;;;;;17.10;1.05;;;4.10;99.90;;;;;;5008651;28;20034;-77
2022/01/28 01:06:26;;;;;;;13.15;0.88;;;4.10;99.90;;;;;;5010951;28;20030;-78
2022/01/28 01:08:52;;;;;;;14.43;1.00;;;4.10;99.90;;;;;;5009538;28;20034;-77
2022/01/28 01:11:21;;;;;;;18.17;1.20;;;4.10;99.90;;;;;;5012030;28;20497;-77
2022/01/28 01:13:48;;;;;;;14.32;0.93;;;4.10;99.90;;;;;;5009594;28;20045;-77
2022/01/28 01:16:17;;;;;;;15.20;0.88;;;4.10;99.90;;;;;;5010523;28;20166;-77
2022/01/28 01:21:29;;;;;;;13.40;1.13;;;4.10;99.90;;;;;;4998919;28;20044;-77
2022/01/28 01:23:57;;;;;;;15.23;1.17;;;4.20;99.90;;;;;;5011960;28;20048;-77
2022/01/28 01:26:35;;;;;;;15.50;0.85;;;4.20;99.90;;;;;;5009639;28;20386;-77
2022/01/28 01:29:05;;;;;;;16.10;1.10;;;4.20;99.90;;;;;;5010815;28;20122;-76
2022/01/28 01:31:30;;;;;;;16.15;0.70;;;4.20;99.90;;;;;;5009640;28;20026;-77
2022/01/28 01:34:09;;;;;;;21.17;1.05;;;4.20;99.90;;;;;;5015345;28;20051;-77
2022/01/28 01:36:35;;;;;;;14.40;0.90;;;4.10;99.90;;;;;;5011415;28;20500;-77
2022/01/28 01:39:02;;;;;;;14.95;1.55;;;4.20;99.90;;;;;;5005195;28;20042;-77
2022/01/28 01:41:55;;;;;;;13.52;0.75;;;4.20;99.90;;;;;;5008160;28;20474;-77
2022/01/28 01:44:34;;;;;;;16.88;1.40;;;4.20;99.90;;;;;;5007254;28;20042;-77
2022/01/28 01:52:44;;;;;;;15.93;1.63;;;4.20;99.90;;;;;;5012111;28;20040;-77
2022/01/28 01:55:10;;;;;;;14.70;0.85;;;4.20;99.90;;;;;;5011789;28;20034;-77
2022/01/28 01:57:35;;;;;;;17.40;1.27;;;4.30;99.90;;;;;;5008816;28;20041;-76
2022/01/28 02:00:01;;;;;;;17.17;0.80;;;4.30;99.90;;;;;;5011793;28;20092;-77
2022/01/28 02:02:27;;;;;;;13.70;1.42;;;4.30;99.90;;;;;;5010499;28;20050;-76
2022/01/28 02:04:52;;;;;;;14.43;0.95;;;4.30;99.90;;;;;;5017236;28;20103;-77
2022/01/28 02:07:18;;;;;;;15.10;1.42;;;4.30;99.90;;;;;;5020994;28;20030;-77
2022/01/28 02:09:44;;;;;;;13.10;1.00;;;4.20;99.90;;;;;;5014811;28;20030;-77
2022/01/28 02:12:10;;;;;;;17.23;1.58;;;4.20;99.90;;;;;;5012925;28;20028;-76
2022/01/28 02:14:35;;;;;;;12.70;1.23;;;4.20;99.90;;;;;;5014056;28;20101;-77
2022/01/28 02:17:02;;;;;;;16.13;0.80;;;4.10;99.90;;;;;;5006971;28;20026;-77
2022/01/28 02:19:28;;;;;;;16.58;0.88;;;4.10;99.90;;;;;;5014026;28;20038;-78
2022/01/28 02:21:54;;;;;;;12.88;0.65;;;4.10;99.90;;;;;;5011081;28;20500;-78
2022/01/28 02:24:32;;;;;;;12.07;1.27;;;4.10;99.90;;;;;;5009836;28;20026;-77
2022/01/28 02:26:58;;;;;;;13.45;0.80;;;4.10;99.90;;;;;;5012657;28;20473;-78
2022/01/28 02:29:29;;;;;;;17.85;1.27;;;4.10;99.90;;;;;;5010179;28;20109;-77
2022/01/28 02:31:57;;;;;;;13.83;0.80;;;4.10;99.90;;;;;;5006887;28;20120;-78
2022/01/28 02:34:23;;;;;;;16.42;1.75;;;4.00;99.90;;;;;;5014876;28;20062;-78
2022/01/28 02:36:49;;;;;;;13.82;1.10;;;4.00;99.90;;;;;;5013771;28;20048;-78
2022/01/28 02:39:14;;;;;;;20.23;1.80;;;4.00;99.90;;;;;;5013588;28;20038;-78
2022/01/28 02:41:44;;;;;;;15.75;1.73;;;4.00;99.90;;;;;;5009682;28;20038;-78
2022/01/28 02:44:20;;;;;;;21.67;1.95;;;4.00;99.90;;;;;;5013818;28;20096;-78
2022/01/28 02:47:02;;;;;;;14.25;0.90;;;4.00;99.90;;;;;;5015475;28;20018;-77
2022/01/28 02:49:34;;;;;;;11.83;1.60;;;4.00;99.90;;;;;;5018172;28;20029;-78
2022/01/28 02:52:01;;;;;;;10.70;0.60;;;3.90;99.90;;;;;;5020321;28;20057;-78
2022/01/28 02:54:27;;;;;;;23.48;2.03;;;3.90;99.90;;;;;;5009334;28;20042;-77
2022/01/28 02:56:58;;;;;;;16.77;0.80;;;3.90;99.90;;;;;;5018068;28;20113;-78
2022/01/28 02:59:24;;;;;;;12.82;0.75;;;3.90;99.90;;;;;;5010541;28;20487;-78
2022/01/28 03:01:49;;;;;;;9.02;0.90;;;3.90;99.90;;;;;;5014862;28;20029;-78
2022/01/28 03:04:46;;;;;;;14.75;0.90;;;3.90;99.90;;;;;;5011924;28;20493;-77
2022/01/28 03:07:00;;;;;;;16.27;0.60;;;3.90;99.90;;;;;;5015489;28;20049;-78
2022/01/28 03:09:36;;;;;;;15.38;1.05;;;4.00;99.90;;;;;;5016639;28;20474;-78
2022/01/28 03:12:14;;;;;;;15.45;0.75;;;4.00;99.90;;;;;;5017433;28;20440;-77
2022/01/28 03:17:51;;;;;;;16.58;1.35;;;4.00;99.90;;;;;;5015107;28;20437;-77
2022/01/28 03:22:45;;;;;;;11.38;1.60;;;4.00;99.90;;;;;;5014890;28;20037;-77
2022/01/28 03:25:10;;;;;;;17.50;1.40;;;4.00;99.90;;;;;;5015759;28;20053;-77
2022/01/28 03:30:31;;;;;;;15.23;0.88;;;4.10;99.90;;;;;;5010268;28;20048;-78
2022/01/28 03:32:56;;;;;;;13.00;0.60;;;4.00;99.90;;;;;;5017616;28;20025;-77
2022/01/28 03:35:22;;;;;;;19.60;0.93;;;3.90;99.90;;;;;;5015301;28;20398;-77
2022/01/28 03:37:47;;;;;;;14.43;1.30;;;3.90;99.90;;;;;;5013564;28;20478;-77
2022/01/28 03:40:17;;;;;;;20.73;1.25;;;3.80;99.90;;;;;;5014648;28;20030;-77
2022/01/28 03:42:43;;;;;;;16.05;0.93;;;3.70;99.90;;;;;;5010913;28;20018;-77
2022/01/28 03:45:09;;;;;;;10.02;0.55;;;3.70;99.90;;;;;;5010385;28;20029;-78
2022/01/28 03:47:34;;;;;;;14.60;0.90;;;3.70;99.90;;;;;;5014401;28;20053;-78
2022/01/28 03:50:00;;;;;;;11.55;0.70;;;3.80;99.90;;;;;;5015614;28;20033;-78
2022/01/28 03:52:25;;;;;;;18.85;1.33;;;3.80;99.90;;;;;;5011824;28;20037;-76
2022/01/28 03:54:51;;;;;;;6.65;0.80;;;3.80;99.90;;;;;;5016350;28;20141;-78
2022/01/28 03:57:16;;;;;;;12.13;0.57;;;3.70;99.90;;;;;;5015650;28;20034;-78
2022/01/28 03:59:42;;;;;;;14.20;1.85;;;3.80;99.90;;;;;;5011789;28;20090;-77
2022/01/28 04:02:08;;;;;;;13.23;1.23;;;3.80;99.90;;;;;;5008110;28;20108;-79
2022/01/28 04:12:35;;;;;;;17.48;0.80;;;3.90;99.90;;;;;;5013031;28;20065;-78
2022/01/28 04:17:26;;;;;;;13.60;0.93;;;3.80;99.90;;;;;;5009463;28;20061;-79
2022/01/28 04:19:52;;;;;;;9.10;0.73;;;3.80;99.90;;;;;;5013542;28;20038;-79
2022/01/28 04:22:22;;;;;;;15.02;1.10;;;3.70;99.90;;;;;;5013893;28;20030;-79
2022/01/28 04:24:48;;;;;;;13.32;0.65;;;3.70;99.90;;;;;;5009739;28;20033;-79
2022/01/28 04:27:14;;;;;;;16.50;0.90;;;3.60;99.90;;;;;;5013211;28;20065;-79
2022/01/28 04:29:39;;;;;;;9.25;0.55;;;3.60;99.90;;;;;;5009889;28;20057;-79
2022/01/28 04:32:06;;;;;;;13.80;1.60;;;3.60;99.90;;;;;;5012099;28;20101;-79
2022/01/28 04:34:32;;;;;;;15.95;1.02;;;3.60;99.90;;;;;;5002360;28;20030;-79
2022/01/28 04:45:02;;;;;;;23.10;1.27;;;3.40;99.90;;;;;;5009445;28;20401;-79
2022/01/28 04:48:01;;;;;;;14.48;0.98;;;3.40;99.90;;;;;;5011007;28;20038;-79
2022/01/28 04:50:29;;;;;;;9.63;0.60;;;3.30;99.90;;;;;;5012179;28;20129;-79
2022/01/28 05:24:39;;;;;;;8.55;0.60;;;3.10;99.90;;;;;;5004976;28;20045;-78
2022/01/28 05:27:01;;;;;;;20.55;0.95;;;3.00;99.90;;;;;;4997785;28;20038;-79
2022/01/28 05:29:26;;;;;;;;;;;3.00;99.90;;;;;;5006586;28;20589;-78
2022/01/28 05:31:52;;;;;;;9.55;0.73;;;3.00;99.90;;;;;;5010597;28;20000;-79
2022/01/28 05:34:18;;;;;;;8.63;0.75;;;3.00;99.90;;;;;;5010136;28;20529;-78
2022/01/28 05:36:45;;;;;;;8.13;0.32;;;3.00;99.90;;;;;;5003301;28;20018;-78
2022/01/28 05:39:10;;;;;;;19.90;1.73;;;3.00;99.90;;;;;;5012070;28;20096;-79
2022/01/28 05:41:36;;;;;;;12.02;1.40;;;3.00;99.90;;;;;;5011609;28;20021;-78
2022/01/28 05:44:02;;;;;;;10.48;0.70;;;3.00;99.90;;;;;;5004924;28;20034;-77
2022/01/28 05:46:29;;;;;;;16.42;1.35;;;3.00;99.90;;;;;;5003611;28;20482;-78
2022/01/28 05:48:56;;;;;;;13.40;1.15;;;3.00;99.90;;;;;;5008008;28;20117;-78
2022/01/28 05:51:22;;;;;;;13.05;0.70;;;3.10;99.90;;;;;;4996953;28;20409;-79
2022/01/28 05:53:47;;;;;;;11.45;0.60;;;3.00;99.90;;;;;;5011362;28;20098;-78
2022/01/28 05:56:13;;;;;;;10.50;0.90;;;3.00;99.90;;;;;;5006345;28;20052;-78
2022/01/28 05:58:39;;;;;;;6.68;0.80;;;3.10;99.90;;;;;;5008776;28;20414;-78
2022/01/28 06:01:04;;;;;;;12.38;0.60;;;3.00;99.90;;;;;;5000983;28;20072;-79
2022/01/28 06:03:30;;;;;;;13.57;1.00;;;3.00;99.90;;;;;;5007157;28;20068;-78
2022/01/28 06:05:55;;;;;;;14.10;1.35;;;2.90;99.90;;;;;;5005998;28;20029;-77
2022/01/28 06:08:21;;;;;;;15.35;2.10;;;2.90;99.90;;;;;;5005817;28;20406;-76
2022/01/28 06:10:46;;;;;;;16.20;1.15;;;2.90;99.90;;;;;;5005153;28;20311;-75
2022/01/28 06:13:12;;;;;;;11.98;0.80;;;2.90;99.90;;;;;;5012005;28;20026;-77
2022/01/28 06:15:42;;;;;;;14.57;1.08;;;2.80;99.90;;;;;;5006424;28;20026;-78
2022/01/28 06:18:09;;;;;;;12.00;0.73;;;2.90;99.90;;;;;;5006860;28;20401;-78
2022/01/28 06:20:35;;;;;;;4.82;0.50;;;2.80;99.90;;;;;;5006922;28;20090;-78
2022/01/28 06:23:00;;;;;;;13.52;1.10;;;2.80;99.90;;;;;;5006254;28;20077;-77
2022/01/28 06:25:26;;;;;;;15.15;1.17;;;2.80;99.90;;;;;;5007573;28;20398;-78
2022/01/28 06:27:51;;;;;;;19.40;0.82;;;2.70;99.90;;;;;;5002220;28;20040;-78
2022/01/28 06:30:19;;;;;;;16.50;0.63;;;2.80;99.90;;;;;;5001770;28;20044;-78
2022/01/28 06:32:45;;;;;;;10.27;0.57;;;2.90;99.90;;;;;;5001902;28;20064;-77
2022/01/28 06:35:10;;;;;;;18.17;1.10;;;2.90;99.90;;;;;;5001842;28;20037;-78
2022/01/28 06:37:38;;;;;;;13.07;1.75;;;2.90;99.90;;;;;;4998168;28;20136;-77
2022/01/28 06:40:13;;;;;;;12.40;0.77;;;2.80;99.90;;;;;;5001728;28;20403;-78
2022/01/28 06:42:39;;;;;;;15.25;0.68;;;2.80;99.90;;;;;;5002139;28;20046;-78
2022/01/28 06:45:06;;;;;;;18.23;1.75;;;2.80;99.90;;;;;;5003766;28;20030;-79
2022/01/28 06:47:32;;;;;;;11.80;0.50;;;2.80;99.90;;;;;;5000772;28;20130;-78
2022/01/28 06:49:58;;;;;;;11.27;0.70;;;2.80;99.90;;;;;;5003821;28;20565;-78
2022/01/28 06:52:23;;;;;;;16.17;1.02;;;2.90;99.90;;;;;;5002068;28;20057;-78
2022/01/28 06:54:49;;;;;;;14.75;0.57;;;2.90;99.90;;;;;;5004269;28;20577;-77
2022/01/28 06:57:15;;;;;;;9.73;0.55;;;2.90;99.90;;;;;;5005054;28;20056;-77
2022/01/28 06:59:40;;;;;;;16.02;1.25;;;2.90;99.90;;;;;;5003654;28;20057;-77
2022/01/28 07:02:06;;;;;;;16.15;0.82;;;2.90;99.90;;;;;;5000694;28;20479;-78
2022/01/28 07:04:32;;;;;;;11.07;0.93;;;2.80;99.90;;;;;;4993202;28;20026;-79
2022/01/28 07:06:58;;;;;;;16.27;0.75;;;2.80;99.90;;;;;;5005705;28;20387;-78
2022/01/28 07:09:23;;;;;;;10.35;0.88;;;2.80;99.90;;;;;;4998055;28;20072;-78
2022/01/28 07:11:49;;;;;;;18.52;1.30;;;2.70;99.90;;;;;;5010747;28;20105;-78
2022/01/28 07:14:15;;;;;;;15.82;0.90;;;2.80;99.90;;;;;;5005028;28;20739;-79
2022/01/28 07:16:40;;;;;;;10.77;0.98;;;2.70;99.90;;;;;;5001190;28;20747;-79
2022/01/28 07:19:08;;;;;;;10.88;0.63;;;2.70;99.90;;;;;;5011079;28;20124;-79
2022/01/28 07:21:34;;;;;;;22.52;1.23;;;2.70;99.90;;;;;;5005544;28;20359;-79
2022/01/28 07:23:59;;;;;;;12.30;1.00;;;2.70;99.90;;;;;;5001172;28;20088;-80
2022/01/28 07:26:25;;;;;;;10.80;0.77;;;2.70;99.90;;;;;;5009445;28;20397;-80
2022/01/28 07:28:52;;;;;;;14.68;0.88;;;2.70;99.90;;;;;;5003800;28;20036;-80
2022/01/28 07:31:18;;;;;;;11.25;1.02;;;2.70;99.90;;;;;;5010744;28;20034;-78
2022/01/28 07:33:44;;;;;;;10.27;0.95;;;2.70;99.90;;;;;;5008879;28;20045;-78
2022/01/28 07:36:10;;;;;;;11.90;0.88;;;2.70;99.90;;;;;;5011282;28;20030;-78
2022/01/28 07:38:35;;;;;;;24.40;2.70;;;2.70;99.90;;;;;;5013989;28;20066;-78
2022/01/28 07:41:01;;;;;;;21.88;0.90;;;2.80;99.90;;;;;;5013572;28;20061;-78
2022/01/28 07:43:27;;;;;;;11.00;0.80;;;2.90;99.90;;;;;;5008423;28;20052;-78
2022/01/28 07:45:53;;;;;;;11.45;0.95;;;3.00;99.90;;;;;;5007644;28;20075;-77
2022/01/28 07:48:19;;;;;;;18.67;2.13;;;3.00;99.90;;;;;;5006271;28;20073;-78
2022/01/28 07:50:45;;;;;;;15.50;1.30;;;3.10;99.90;;;;;;5004024;28;20058;-78
2022/01/28 07:53:14;;;;;;;16.92;1.40;;;3.20;99.90;;;;;;5005543;28;20162;-78
2022/01/28 07:55:40;;;;;;;13.23;1.02;;;3.30;99.90;;;;;;5002606;28;20423;-79
2022/01/28 07:58:05;;;;;;;13.60;1.48;;;3.40;99.90;;;;;;5012375;28;20022;-77
2022/01/28 08:00:31;;;;;;;13.98;1.20;;;3.40;99.90;;;;;;5005774;28;20038;-79
2022/01/28 08:02:56;;;;;;;12.23;0.93;;;3.50;99.90;;;;;;5003832;28;20076;-78
2022/01/28 08:05:22;;;;;;;10.82;1.08;;;3.50;99.90;;;;;;5003981;28;20212;-76
2022/01/28 08:07:48;;;;;;;18.30;1.38;;;3.60;99.90;;;;;;5013416;28;20030;-76
2022/01/28 08:10:16;;;;;;;12.00;0.85;;;3.60;99.90;;;;;;5012956;28;20045;-76
2022/01/28 08:12:52;;;;;;;12.68;1.00;;;3.70;99.90;;;;;;5008867;28;20466;-76
2022/01/28 08:15:19;;;;;;;15.95;1.90;;;3.70;99.90;;;;;;5008473;28;20520;-78
2022/01/28 08:17:45;;;;;;;21.55;2.40;;;3.70;99.90;;;;;;4997903;28;20085;-78
2022/01/28 08:20:11;;;;;;;8.48;0.65;;;3.60;99.90;;;;;;4993623;28;20041;-78
2022/01/28 08:22:52;;;;;;;11.48;0.95;;;3.60;99.90;;;;;;5013665;28;20041;-79
2022/01/28 08:25:20;;;;;;;10.52;0.82;;;3.60;99.90;;;;;;4996169;28;20066;-79
2022/01/28 08:27:46;;;;;;;8.98;0.75;;;3.50;99.90;;;;;;5005793;28;20030;-78
2022/01/28 08:30:14;;;;;;;17.50;1.10;;;3.50;99.90;;;;;;5010003;28;20030;-78
2022/01/28 08:32:40;;;;;;;13.15;0.80;;;3.50;99.90;;;;;;5013078;28;20030;-79
2022/01/28 08:35:07;;;;;;;22.17;1.10;;;3.60;99.90;;;;;;5012407;28;20033;-78
2022/01/28 08:37:33;;;;;;;18.05;1.25;;;3.70;99.90;;;;;;5010882;28;20025;-77
2022/01/28 08:39:59;;;;;;;16.50;1.67;;;3.90;99.90;;;;;;5004907;28;20042;-79
2022/01/28 08:42:25;;;;;;;16.92;1.58;;;4.00;99.90;;;;;;5005615;28;20049;-78
2022/01/28 08:44:50;;;;;;;14.43;1.08;;;4.10;99.90;;;;;;5004145;28;20042;-77
2022/01/28 08:47:16;;;;;;;12.23;1.25;;;4.20;99.90;;;;;;5010615;28;20049;-77
2022/01/28 08:49:42;;;;;;;12.52;1.27;;;4.30;99.90;;;;;;5011137;28;20115;-78
2022/01/28 08:52:07;;;;;;;11.77;1.13;;;4.30;99.90;;;;;;5009462;28;20032;-78
2022/01/28 08:54:33;;;;;;;18.30;1.95;;;4.30;99.90;;;;;;5012739;28;20026;-78
2022/01/28 08:56:59;;;;;;;10.23;1.05;;;4.30;99.90;;;;;;5001767;28;20105;-78
2022/01/28 08:59:24;;;;;;;13.35;1.88;;;4.40;99.90;;;;;;5012611;28;20064;-78
2022/01/28 09:01:50;;;;;;;10.43;0.95;;;4.40;99.90;;;;;;5011241;28;20057;-77
2022/01/28 09:04:15;;;;;;;16.27;1.33;;;4.40;99.90;;;;;;5011908;28;20034;-78
2022/01/28 09:06:41;;;;;;;14.40;1.33;;;4.50;99.90;;;;;;5010052;28;20414;-77
2022/01/28 09:09:07;;;;;;;12.30;0.88;;;4.60;99.90;;;;;;5009921;28;20492;-78
2022/01/28 09:11:45;;;;;;;19.80;1.42;;;4.60;99.90;;;;;;5007088;28;20045;-78
2022/01/28 09:14:14;;;;;;;12.13;0.80;;;4.70;99.90;;;;;;4998561;28;20030;-79
2022/01/28 09:16:41;;;;;;;10.27;0.65;;;4.80;99.90;;;;;;5003142;28;20084;-79
2022/01/28 09:19:07;;;;;;;11.07;1.00;;;4.80;99.90;;;;;;5004413;28;20049;-79
2022/01/28 09:21:33;;;;;;;13.38;0.93;;;4.90;99.90;;;;;;5008656;28;20095;-78
2022/01/28 09:23:58;;;;;;;16.98;0.98;;;4.90;99.90;;;;;;5011486;28;20466;-78
2022/01/28 09:26:24;;;;;;;12.07;0.70;;;5.00;99.90;;;;;;5011862;28;20390;-79
2022/01/28 09:28:49;;;;;;;9.95;0.70;;;5.00;99.90;;;;;;5012551;28;20022;-79
2022/01/28 09:31:15;;;;;;;13.27;0.80;;;5.10;99.90;;;;;;5012400;28;20386;-79
2022/01/28 09:33:41;;;;;;;8.07;0.90;;;5.20;99.90;;;;;;5009946;28;20041;-79
2022/01/28 09:36:07;;;;;;;22.55;1.73;;;5.20;99.90;;;;;;5010202;28;20041;-78
2022/01/28 09:38:33;;;;;;;10.68;1.05;;;5.30;99.90;;;;;;5007007;28;20034;-79
2022/01/28 09:41:02;;;;;;;9.35;0.63;;;5.30;99.90;;;;;;5000266;28;20124;-78
2022/01/28 09:43:28;;;;;;;18.85;1.30;;;5.40;99.90;;;;;;5008149;28;20380;-79
2022/01/28 09:45:54;;;;;;;21.60;1.48;;;5.50;99.90;;;;;;5011161;28;20030;-78
2022/01/28 09:48:20;;;;;;;10.15;0.82;;;5.60;99.90;;;;;;5011176;28;20057;-78
2022/01/28 09:50:46;;;;;;;13.00;0.90;;;5.60;99.90;;;;;;5011291;28;20105;-80
2022/01/28 09:53:13;;;;;;;7.32;0.68;;;5.60;99.90;;;;;;5011469;28;20034;-79
2022/01/28 09:55:39;;;;;;;14.30;1.15;;;5.70;99.90;;;;;;5008183;28;20032;-78
2022/01/28 09:58:05;;;;;;;10.18;0.80;;;5.80;99.90;;;;;;5000680;28;20026;-78
2022/01/28 10:00:32;;;;;;;11.35;1.13;;;5.80;99.90;;;;;;5011384;28;20091;-79
2022/01/28 10:03:08;;;;;;;10.77;0.93;;;6.00;99.90;;;;;;5011343;28;20101;-79
2022/01/28 10:05:45;;;;;;;9.85;0.93;;;6.00;99.90;;;;;;5009971;28;20430;-78
2022/01/28 10:08:16;;;;;;;12.45;0.90;;;6.10;99.90;;;;;;5009987;28;20080;-79
2022/01/28 10:10:51;;;;;;;14.27;0.90;;;6.20;99.90;;;;;;5011132;28;20033;-77
2022/01/28 10:13:51;;;;;;;11.45;1.35;;;6.20;99.90;;;;;;5010758;28;20060;-79
2022/01/28 10:16:24;;;;;;;11.73;1.08;;;6.30;99.90;;;;;;5009041;28;20069;-78
2022/01/28 10:19:00;;;;;;;13.75;1.75;;;6.40;99.90;;;;;;5009845;28;20493;-79
2022/01/28 10:21:43;;;;;;;13.85;0.90;;;6.40;99.90;;;;;;5011633;28;20026;-79
2022/01/28 10:24:21;;;;;;;6.22;0.80;;;6.50;99.90;;;;;;5010647;28;20096;-79
2022/01/28 10:26:49;;;;;;;13.68;0.90;;;6.60;99.90;;;;;;5009880;28;20405;-79
2022/01/28 10:29:30;;;;;;;16.35;1.73;;;6.60;99.90;;;;;;5010400;28;20029;-80
2022/01/28 10:31:58;;;;;;;19.52;1.20;;;6.70;99.90;;;;;;4997809;28;20045;-79
2022/01/28 10:34:35;;;;;;;10.13;0.90;;;6.80;99.90;;;;;;5009760;28;20073;-78
2022/01/28 10:37:22;;;;;;;11.23;1.27;;;6.80;99.90;;;;;;5010173;28;20046;-78
2022/01/28 10:40:09;;;;;;;12.20;1.30;;;6.80;99.90;;;;;;4996655;28;20089;-79
2022/01/28 10:42:53;;;;;;;9.90;0.95;;;6.90;99.90;;;;;;5001467;28;20030;-79
2022/01/28 10:45:25;;;;;;;13.82;1.08;;;6.80;99.90;;;;;;5005846;28;20034;-79
2022/01/28 10:47:53;;;;;;;13.68;1.42;;;6.80;99.90;;;;;;5009909;28;20056;-78
2022/01/28 10:50:34;;;;;;;13.15;1.15;;;6.80;99.90;;;;;;5009772;28;20481;-78
2022/01/28 10:53:06;;;;;;;13.30;0.90;;;6.90;99.90;;;;;;5009970;28;20113;-77
2022/01/28 10:55:33;;;;;;;11.13;1.20;;;6.90;99.90;;;;;;5008300;28;20026;-76
2022/01/28 10:58:18;;;;;;;15.23;1.27;;;6.90;99.90;;;;;;4991606;28;20399;-77
2022/01/28 11:00:49;;;;;;;9.88;1.02;;;7.00;99.90;;;;;;4997971;28;20397;-77
2022/01/28 11:03:26;;;;;;;17.80;1.90;;;7.10;99.90;;;;;;5010677;28;20041;-77
2022/01/28 11:05:59;;;;;;;19.50;1.33;;;7.20;99.90;;;;;;5005961;28;20026;-78
2022/01/28 11:08:29;;;;;;;13.02;1.02;;;7.20;99.90;;;;;;5001997;28;20037;-77
2022/01/28 11:10:55;;;;;;;8.85;0.93;;;7.20;99.90;;;;;;5008740;28;20061;-78
2022/01/28 11:13:22;;;;;;;11.07;1.20;;;7.20;99.90;;;;;;5012076;28;20470;-78
2022/01/28 11:15:48;;;;;;;13.13;1.38;;;7.30;99.90;;;;;;5008136;28;20045;-77
2022/01/28 11:18:14;;;;;;;12.50;1.30;;;7.30;99.90;;;;;;5010598;28;20027;-77
2022/01/28 11:20:50;;;;;;;14.18;1.33;;;7.40;99.90;;;;;;5011000;28;20037;-77
2022/01/28 11:23:48;;;;;;;12.63;1.10;;;7.40;99.90;;;;;;5008434;28;20050;-77
2022/01/28 11:26:48;;;;;;;14.43;0.95;;;7.30;99.90;;;;;;5012113;28;20679;-78
2022/01/28 11:29:24;;;;;;;13.05;1.08;;;7.40;99.90;;;;;;5014401;28;20479;-75
2022/01/28 11:31:54;;;;;;;10.13;1.00;;;7.40;99.90;;;;;;5009473;28;20381;-75
2022/01/28 11:34:27;;;;;;;12.63;0.98;;;7.40;99.90;;;;;;5013344;28;20025;-76
2022/01/28 11:36:55;;;;;;;9.63;0.95;;;7.40;99.90;;;;;;5012438;28;20033;-75
2022/01/28 11:39:36;;;;;;;8.98;0.90;;;7.40;99.90;;;;;;5011830;28;20410;-76
2022/01/28 11:42:07;;;;;;;13.75;1.52;;;7.40;99.90;;;;;;5010867;28;20033;-76
2022/01/28 11:44:44;;;;;;;8.95;1.05;;;7.40;99.90;;;;;;5010518;28;20514;-76
2022/01/28 11:47:19;;;;;;;16.92;1.25;;;7.30;99.90;;;;;;5012276;28;20053;-76
2022/01/28 11:50:08;;;;;;;11.95;1.02;;;7.40;99.90;;;;;;5012385;28;20057;-75
2022/01/28 11:52:39;;;;;;;8.80;0.82;;;7.40;99.90;;;;;;4998804;28;20387;-77
2022/01/28 11:55:24;;;;;;;16.85;1.70;;;7.50;99.90;;;;;;5008742;28;20105;-76
2022/01/28 11:57:58;;;;;;;12.90;0.90;;;7.60;99.90;;;;;;5008218;28;20120;-76
2022/01/28 12:00:47;;;;;;;10.65;0.68;;;7.80;99.90;;;;;;5007085;28;20037;-77
2022/01/28 12:03:22;;;;;;;13.15;0.93;;;8.00;99.90;;;;;;5006832;28;20030;-77
2022/01/28 12:05:50;;;;;;;10.85;0.90;;;8.20;99.90;;;;;;5009912;28;20034;-76
2022/01/28 12:08:18;;;;;;;9.70;1.35;;;8.30;99.90;;;;;;5009831;28;20419;-77
2022/01/28 12:10:45;;;;;;;8.65;0.80;;;8.50;99.90;;;;;;5005270;28;20118;-77
2022/01/28 12:13:16;;;;;;;7.28;0.68;;;8.80;99.90;;;;;;5002095;28;20030;-77
2022/01/28 12:16:12;;;;;;;10.90;0.90;;;8.90;99.90;;;;;;5008158;28;20026;-77
2022/01/28 12:18:49;;;;;;;11.93;1.60;;;8.80;99.90;;;;;;5001198;28;20046;-77
2022/01/28 12:21:16;;;;;;;13.40;1.00;;;8.80;99.90;;;;;;5002854;28;20136;-79
2022/01/28 12:23:44;;;;;;;7.15;0.47;;;8.80;99.90;;;;;;5008513;28;20038;-78
2022/01/28 12:26:11;;;;;;;11.98;1.20;;;8.80;99.90;;;;;;5005204;28;20022;-77
2022/01/28 12:28:41;;;;;;;11.07;0.60;;;8.70;99.90;;;;;;5001167;28;20132;-78
2022/01/28 12:31:29;;;;;;;11.57;0.60;;;8.70;99.90;;;;;;5004217;28;20034;-79
2022/01/28 12:33:57;;;;;;;8.32;0.70;;;8.80;99.90;;;;;;5003214;28;20056;-78
2022/01/28 12:36:31;;;;;;;13.75;0.50;;;8.80;99.90;;;;;;5002857;28;20026;-75
2022/01/28 12:39:08;;;;;;;7.63;0.57;;;8.90;99.90;;;;;;4999674;28;20077;-76
2022/01/28 12:41:43;;;;;;;24.10;1.25;;;9.00;99.90;;;;;;4997506;28;20276;-77
2022/01/28 12:44:15;;;;;;;9.18;0.70;;;9.10;99.90;;;;;;5010452;28;20110;-76
2022/01/28 12:46:56;;;;;;;8.35;0.60;;;9.00;99.90;;;;;;5002926;28;20040;-78
2022/01/28 12:49:30;;;;;;;6.87;0.50;;;9.00;99.90;;;;;;5000603;28;20046;-76
2022/01/28 12:52:03;;;;;;;5.95;0.70;;;8.90;99.90;;;;;;5000906;28;20022;-77
2022/01/28 12:54:37;;;;;;;4.88;0.40;;;9.00;99.90;;;;;;4999114;28;20124;-76
2022/01/28 12:57:04;;;;;;;13.02;1.58;;;9.10;99.90;;;;;;5001966;28;20390;-77
2022/01/28 12:59:30;;;;;;;13.50;0.70;;;9.20;99.90;;;;;;5000220;28;20426;-76
2022/01/28 13:01:56;;;;;;;8.32;0.55;;;9.30;99.90;;;;;;4998519;28;20030;-77
2022/01/28 13:04:25;;;;;;;5.85;0.40;;;9.30;99.90;;;;;;5000161;28;20060;-75
2022/01/28 13:09:24;;;;;;;11.38;0.95;;;9.30;99.90;;;;;;5002142;28;20033;-77
2022/01/28 13:11:55;;;;;;;10.57;1.02;;;9.10;99.90;;;;;;4996737;28;20022;-76
2022/01/28 13:14:30;;;;;;;9.98;0.88;;;8.90;99.90;;;;;;5000601;28;20045;-76
2022/01/28 13:16:56;;;;;;;10.48;0.75;;;8.70;99.90;;;;;;5018900;28;20037;-76
2022/01/28 13:19:22;;;;;;;7.72;0.57;;;8.60;99.90;;;;;;4998584;28;20045;-77
2022/01/28 13:21:50;;;;;;;9.50;0.50;;;8.50;99.90;;;;;;4998642;28;20025;-76
2022/01/28 13:24:22;;;;;;;16.67;1.33;;;8.40;99.90;;;;;;5001854;28;20064;-78
2022/01/28 13:26:53;;;;;;;7.97;1.25;;;8.50;99.90;;;;;;5003461;28;20069;-78
2022/01/28 13:29:27;;;;;;;6.45;0.77;;;8.60;99.90;;;;;;5004111;28;20364;-78
2022/01/28 13:31:56;;;;;;;7.97;0.63;;;8.70;99.90;;;;;;5003277;28;20029;-77
2022/01/28 13:34:22;;;;;;;7.35;0.70;;;8.70;99.90;;;;;;5007885;28;20053;-78
2022/01/28 13:36:52;;;;;;;10.15;0.85;;;8.80;99.90;;;;;;5006228;28;20072;-77
2022/01/28 13:39:20;;;;;;;19.33;1.20;;;8.80;99.90;;;;;;5007257;28;20124;-77
2022/01/28 13:41:50;;;;;;;14.27;1.08;;;8.90;99.90;;;;;;5009329;28;20060;-77
2022/01/28 13:44:24;;;;;;;9.70;0.75;;;9.00;99.90;;;;;;5009575;28;20037;-77
2022/01/28 13:47:02;;;;;;;12.32;0.70;;;9.00;99.90;;;;;;5004302;28;20018;-77
2022/01/28 13:49:33;;;;;;;9.00;0.85;;;9.10;99.90;;;;;;5009383;28;20042;-77
2022/01/28 13:52:16;;;;;;;8.10;1.02;;;9.10;99.90;;;;;;5009734;28;20768;-77
2022/01/28 13:54:45;;;;;;;6.53;0.70;;;9.20;99.90;;;;;;5003720;28;20036;-77
2022/01/28 13:57:12;;;;;;;8.80;0.90;;;9.30;99.90;;;;;;4998615;28;20032;-78
2022/01/28 13:59:42;;;;;;;12.75;0.80;;;9.30;99.90;;;;;;5003307;28;20494;-78
2022/01/28 14:02:15;;;;;;;11.68;0.82;;;9.30;99.90;;;;;;5008185;28;20037;-77
2022/01/28 14:04:46;;;;;;;11.60;1.73;;;9.30;99.90;;;;;;5003407;28;20072;-77
2022/01/28 14:07:22;;;;;;;10.20;1.42;;;9.30;99.90;;;;;;4993180;28;20034;-77
2022/01/28 14:09:57;;;;;;;8.98;1.10;;;9.40;99.90;;;;;;5007333;28;20523;-77
2022/01/28 14:12:33;;;;;;;8.32;1.00;;;9.40;99.90;;;;;;5010637;28;20049;-78
2022/01/28 14:15:10;;;;;;;12.02;1.50;;;9.40;99.90;;;;;;5009978;28;20030;-77
2022/01/28 14:17:36;;;;;;;12.93;1.90;;;9.40;99.90;;;;;;5009182;28;20026;-77
2022/01/28 14:20:01;;;;;;;7.07;2.22;;;9.40;99.90;;;;;;5006594;28;20037;-77
2022/01/28 14:22:27;;;;;;;14.00;2.30;;;9.40;99.90;;;;;;5008414;28;20034;-78
2022/01/28 14:24:53;;;;;;;8.75;1.50;;;9.50;99.90;;;;;;5006037;28;20056;-77
2022/01/28 14:30:16;;;;;;;10.23;2.40;;;9.60;99.90;;;;;;5005417;28;20125;-77
2022/01/28 14:32:42;;;;;;;11.15;2.20;;;9.70;99.90;;;;;;5008048;28;20022;-77
2022/01/28 14:35:11;;;;;;;8.52;2.20;;;9.70;99.90;;;;;;5006402;28;20445;-78
2022/01/28 14:37:39;;;;;;;9.15;3.22;;;9.60;99.90;;;;;;5005623;28;20091;-77